sensor_id;sensor_type;location;lat;lon;timestamp;P1;durP1;ratioP1;P2;durP2;ratioP2
64938;SDS011;51453;47.738;7.420;2023-06-10T00:01:41;4.75;;;3.38;;
64938;SDS011;51453;47.738;7.420;2023-06-10T00:04:08;3.92;;;3.60;;
64938;SDS011;51453;47.738;7.420;2023-06-10T00:06:34;4.15;;;3.55;;
64938;SDS011;51453;47.738;7.420;2023-06-10T00:09:05;4.25;;;3.85;;
64938;SDS011;51453;47.738;7.420;2023-06-10T00:11:35;4.20;;;3.70;;
64938;SDS011;51453;47.738;7.420;2023-06-10T00:14:01;3.63;;;3.33;;
64938;SDS011;51453;47.738;7.420;2023-06-10T00:16:27;4.00;;;3.60;;
64938;SDS011;51453;47.738;7.420;2023-06-10T00:18:52;4.63;;;3.92;;
64938;SDS011;51453;47.738;7.420;2023-06-10T00:21:20;4.55;;;3.47;;
64938;SDS011;51453;47.738;7.420;2023-06-10T00:23:46;4.13;;;3.70;;
64938;SDS011;51453;47.738;7.420;2023-06-10T00:26:12;3.67;;;3.38;;
64938;SDS011;51453;47.738;7.420;2023-06-10T00:28:38;4.20;;;3.80;;
64938;SDS011;51453;47.738;7.420;2023-06-10T00:31:03;5.18;;;3.63;;
64938;SDS011;51453;47.738;7.420;2023-06-10T00:33:30;4.35;;;3.60;;
64938;SDS011;51453;47.738;7.420;2023-06-10T00:35:56;3.75;;;3.35;;
64938;SDS011;51453;47.738;7.420;2023-06-10T00:38:21;4.85;;;3.70;;
64938;SDS011;51453;47.738;7.420;2023-06-10T00:40:47;4.95;;;3.55;;
64938;SDS011;51453;47.738;7.420;2023-06-10T00:43:12;4.00;;;3.40;;
64938;SDS011;51453;47.738;7.420;2023-06-10T00:45:38;4.03;;;3.63;;
64938;SDS011;51453;47.738;7.420;2023-06-10T00:48:03;4.03;;;3.65;;
64938;SDS011;51453;47.738;7.420;2023-06-10T00:50:30;5.38;;;3.80;;
64938;SDS011;51453;47.738;7.420;2023-06-10T00:52:56;5.40;;;3.78;;
64938;SDS011;51453;47.738;7.420;2023-06-10T00:55:24;4.88;;;3.88;;
64938;SDS011;51453;47.738;7.420;2023-06-10T00:57:52;4.40;;;4.00;;
64938;SDS011;51453;47.738;7.420;2023-06-10T01:00:19;4.35;;;3.67;;
64938;SDS011;51453;47.738;7.420;2023-06-10T01:02:45;4.53;;;4.13;;
64938;SDS011;51453;47.738;7.420;2023-06-10T01:05:11;5.63;;;3.80;;
64938;SDS011;51453;47.738;7.420;2023-06-10T01:07:42;3.95;;;3.65;;
64938;SDS011;51453;47.738;7.420;2023-06-10T01:12:48;4.55;;;3.70;;
64938;SDS011;51453;47.738;7.420;2023-06-10T01:15:21;4.43;;;4.00;;
64938;SDS011;51453;47.738;7.420;2023-06-10T01:20:40;4.90;;;4.40;;
64938;SDS011;51453;47.738;7.420;2023-06-10T01:23:08;4.65;;;4.00;;
64938;SDS011;51453;47.738;7.420;2023-06-10T01:25:37;7.28;;;4.20;;
64938;SDS011;51453;47.738;7.420;2023-06-10T01:30:53;4.47;;;4.05;;
64938;SDS011;51453;47.738;7.420;2023-06-10T01:33:27;5.95;;;4.55;;
64938;SDS011;51453;47.738;7.420;2023-06-10T01:35:56;6.55;;;4.95;;
64938;SDS011;51453;47.738;7.420;2023-06-10T01:38:23;4.00;;;3.67;;
64938;SDS011;51453;47.738;7.420;2023-06-10T01:40:52;4.80;;;4.28;;
64938;SDS011;51453;47.738;7.420;2023-06-10T01:43:20;4.97;;;4.30;;
64938;SDS011;51453;47.738;7.420;2023-06-10T01:45:46;4.55;;;4.15;;
64938;SDS011;51453;47.738;7.420;2023-06-10T01:48:12;4.78;;;4.38;;
64938;SDS011;51453;47.738;7.420;2023-06-10T01:50:37;4.68;;;4.05;;
64938;SDS011;51453;47.738;7.420;2023-06-10T01:53:03;4.93;;;4.43;;
64938;SDS011;51453;47.738;7.420;2023-06-10T01:55:30;8.73;;;4.75;;
64938;SDS011;51453;47.738;7.420;2023-06-10T01:57:56;4.93;;;4.43;;
64938;SDS011;51453;47.738;7.420;2023-06-10T02:00:21;4.82;;;4.32;;
64938;SDS011;51453;47.738;7.420;2023-06-10T02:02:47;5.35;;;4.53;;
64938;SDS011;51453;47.738;7.420;2023-06-10T02:05:12;5.32;;;4.70;;
64938;SDS011;51453;47.738;7.420;2023-06-10T02:07:38;5.22;;;4.72;;
64938;SDS011;51453;47.738;7.420;2023-06-10T02:10:05;8.40;;;4.63;;
64938;SDS011;51453;47.738;7.420;2023-06-10T02:12:31;5.15;;;4.65;;
64938;SDS011;51453;47.738;7.420;2023-06-10T02:14:56;5.70;;;5.10;;
64938;SDS011;51453;47.738;7.420;2023-06-10T02:17:22;4.93;;;4.43;;
64938;SDS011;51453;47.738;7.420;2023-06-10T02:19:48;7.03;;;4.82;;
64938;SDS011;51453;47.738;7.420;2023-06-10T02:22:20;5.40;;;4.90;;
64938;SDS011;51453;47.738;7.420;2023-06-10T02:24:46;4.78;;;4.30;;
64938;SDS011;51453;47.738;7.420;2023-06-10T02:27:12;5.60;;;5.07;;
64938;SDS011;51453;47.738;7.420;2023-06-10T02:29:38;5.78;;;4.65;;
64938;SDS011;51453;47.738;7.420;2023-06-10T02:32:03;4.93;;;4.53;;
64938;SDS011;51453;47.738;7.420;2023-06-10T02:34:29;5.40;;;4.90;;
64938;SDS011;51453;47.738;7.420;2023-06-10T02:36:56;6.65;;;5.20;;
64938;SDS011;51453;47.738;7.420;2023-06-10T02:39:21;7.78;;;5.95;;
64938;SDS011;51453;47.738;7.420;2023-06-10T02:41:47;8.80;;;6.65;;
64938;SDS011;51453;47.738;7.420;2023-06-10T02:44:13;7.15;;;6.05;;
64938;SDS011;51453;47.738;7.420;2023-06-10T02:46:38;9.18;;;5.75;;
64938;SDS011;51453;47.738;7.420;2023-06-10T02:49:04;6.95;;;5.82;;
64938;SDS011;51453;47.738;7.420;2023-06-10T02:51:30;7.88;;;6.28;;
64938;SDS011;51453;47.738;7.420;2023-06-10T02:53:55;8.90;;;5.72;;
64938;SDS011;51453;47.738;7.420;2023-06-10T02:56:21;6.38;;;5.68;;
64938;SDS011;51453;47.738;7.420;2023-06-10T02:58:47;6.93;;;5.28;;
64938;SDS011;51453;47.738;7.420;2023-06-10T03:01:13;6.22;;;5.63;;
64938;SDS011;51453;47.738;7.420;2023-06-10T03:03:40;6.63;;;5.63;;
64938;SDS011;51453;47.738;7.420;2023-06-10T03:06:08;5.45;;;4.95;;
64938;SDS011;51453;47.738;7.420;2023-06-10T03:08:37;6.50;;;4.88;;
64938;SDS011;51453;47.738;7.420;2023-06-10T03:11:03;6.05;;;5.30;;
64938;SDS011;51453;47.738;7.420;2023-06-10T03:13:29;6.68;;;5.28;;
64938;SDS011;51453;47.738;7.420;2023-06-10T03:15:54;5.50;;;4.80;;
64938;SDS011;51453;47.738;7.420;2023-06-10T03:18:20;7.22;;;5.43;;
64938;SDS011;51453;47.738;7.420;2023-06-10T03:20:48;6.35;;;5.28;;
64938;SDS011;51453;47.738;7.420;2023-06-10T03:23:13;5.82;;;5.20;;
64938;SDS011;51453;47.738;7.420;2023-06-10T03:25:40;5.47;;;4.85;;
64938;SDS011;51453;47.738;7.420;2023-06-10T03:28:06;5.70;;;5.05;;
64938;SDS011;51453;47.738;7.420;2023-06-10T03:30:31;6.07;;;5.25;;
64938;SDS011;51453;47.738;7.420;2023-06-10T03:32:57;7.25;;;5.10;;
64938;SDS011;51453;47.738;7.420;2023-06-10T03:35:23;6.00;;;5.30;;
64938;SDS011;51453;47.738;7.420;2023-06-10T03:37:48;5.88;;;5.10;;
64938;SDS011;51453;47.738;7.420;2023-06-10T03:40:14;5.80;;;5.20;;
64938;SDS011;51453;47.738;7.420;2023-06-10T03:42:39;6.30;;;5.03;;
64938;SDS011;51453;47.738;7.420;2023-06-10T03:45:05;7.32;;;5.18;;
64938;SDS011;51453;47.738;7.420;2023-06-10T03:47:34;5.35;;;4.85;;
64938;SDS011;51453;47.738;7.420;2023-06-10T03:50:03;5.63;;;5.07;;
64938;SDS011;51453;47.738;7.420;2023-06-10T03:52:30;5.88;;;5.28;;
64938;SDS011;51453;47.738;7.420;2023-06-10T03:54:56;5.60;;;5.10;;
64938;SDS011;51453;47.738;7.420;2023-06-10T03:57:22;5.68;;;5.18;;
64938;SDS011;51453;47.738;7.420;2023-06-10T03:59:47;7.13;;;5.97;;
64938;SDS011;51453;47.738;7.420;2023-06-10T04:02:13;9.73;;;6.10;;
64938;SDS011;51453;47.738;7.420;2023-06-10T04:04:38;6.68;;;5.95;;
64938;SDS011;51453;47.738;7.420;2023-06-10T04:07:04;5.75;;;5.25;;
64938;SDS011;51453;47.738;7.420;2023-06-10T04:09:30;8.27;;;5.82;;
64938;SDS011;51453;47.738;7.420;2023-06-10T04:11:56;6.85;;;5.82;;
64938;SDS011;51453;47.738;7.420;2023-06-10T04:14:22;7.18;;;5.70;;
64938;SDS011;51453;47.738;7.420;2023-06-10T04:16:48;5.72;;;5.20;;
64938;SDS011;51453;47.738;7.420;2023-06-10T04:19:15;6.20;;;5.30;;
64938;SDS011;51453;47.738;7.420;2023-06-10T04:21:41;6.93;;;5.25;;
64938;SDS011;51453;47.738;7.420;2023-06-10T04:24:07;5.72;;;5.10;;
64938;SDS011;51453;47.738;7.420;2023-06-10T04:26:33;5.75;;;5.15;;
64938;SDS011;51453;47.738;7.420;2023-06-10T04:29:02;5.30;;;4.65;;
64938;SDS011;51453;47.738;7.420;2023-06-10T04:31:28;5.30;;;4.80;;
64938;SDS011;51453;47.738;7.420;2023-06-10T04:33:53;7.60;;;4.97;;
64938;SDS011;51453;47.738;7.420;2023-06-10T04:36:19;5.22;;;4.72;;
64938;SDS011;51453;47.738;7.420;2023-06-10T04:38:45;5.10;;;4.47;;
64938;SDS011;51453;47.738;7.420;2023-06-10T04:41:11;5.50;;;4.75;;
64938;SDS011;51453;47.738;7.420;2023-06-10T04:43:37;6.57;;;4.75;;
64938;SDS011;51453;47.738;7.420;2023-06-10T04:46:03;6.85;;;4.50;;
64938;SDS011;51453;47.738;7.420;2023-06-10T04:48:29;5.28;;;4.78;;
64938;SDS011;51453;47.738;7.420;2023-06-10T04:50:55;4.93;;;4.43;;
64938;SDS011;51453;47.738;7.420;2023-06-10T04:53:21;5.82;;;4.28;;
64938;SDS011;51453;47.738;7.420;2023-06-10T04:55:47;5.47;;;4.65;;
64938;SDS011;51453;47.738;7.420;2023-06-10T04:58:13;5.05;;;4.65;;
64938;SDS011;51453;47.738;7.420;2023-06-10T05:00:39;4.82;;;4.43;;
64938;SDS011;51453;47.738;7.420;2023-06-10T05:03:05;4.50;;;4.10;;
64938;SDS011;51453;47.738;7.420;2023-06-10T05:05:31;5.57;;;4.28;;
64938;SDS011;51453;47.738;7.420;2023-06-10T05:07:56;4.55;;;4.15;;
64938;SDS011;51453;47.738;7.420;2023-06-10T05:10:22;4.53;;;4.15;;
64938;SDS011;51453;47.738;7.420;2023-06-10T05:12:47;4.88;;;4.38;;
64938;SDS011;51453;47.738;7.420;2023-06-10T05:15:13;6.32;;;4.50;;
64938;SDS011;51453;47.738;7.420;2023-06-10T05:17:39;6.15;;;4.70;;
64938;SDS011;51453;47.738;7.420;2023-06-10T05:20:04;5.00;;;4.50;;
64938;SDS011;51453;47.738;7.420;2023-06-10T05:22:31;4.38;;;3.97;;
64938;SDS011;51453;47.738;7.420;2023-06-10T05:24:57;4.97;;;4.30;;
64938;SDS011;51453;47.738;7.420;2023-06-10T05:27:22;4.88;;;4.15;;
64938;SDS011;51453;47.738;7.420;2023-06-10T05:29:48;5.50;;;4.47;;
64938;SDS011;51453;47.738;7.420;2023-06-10T05:32:13;5.53;;;4.38;;
64938;SDS011;51453;47.738;7.420;2023-06-10T05:34:39;3.88;;;3.58;;
64938;SDS011;51453;47.738;7.420;2023-06-10T05:37:05;5.20;;;4.25;;
64938;SDS011;51453;47.738;7.420;2023-06-10T05:39:30;3.95;;;3.55;;
64938;SDS011;51453;47.738;7.420;2023-06-10T05:41:56;4.20;;;3.90;;
64938;SDS011;51453;47.738;7.420;2023-06-10T05:44:24;4.32;;;3.92;;
64938;SDS011;51453;47.738;7.420;2023-06-10T05:46:50;6.10;;;4.05;;
64938;SDS011;51453;47.738;7.420;2023-06-10T05:49:15;4.97;;;4.00;;
64938;SDS011;51453;47.738;7.420;2023-06-10T05:51:41;4.05;;;3.75;;
64938;SDS011;51453;47.738;7.420;2023-06-10T05:54:07;3.72;;;3.42;;
64938;SDS011;51453;47.738;7.420;2023-06-10T05:56:32;3.60;;;3.33;;
64938;SDS011;51453;47.738;7.420;2023-06-10T05:58:58;3.65;;;3.35;;
64938;SDS011;51453;47.738;7.420;2023-06-10T06:01:24;4.72;;;4.28;;
64938;SDS011;51453;47.738;7.420;2023-06-10T06:03:50;4.32;;;3.92;;
64938;SDS011;51453;47.738;7.420;2023-06-10T06:06:15;3.88;;;3.47;;
64938;SDS011;51453;47.738;7.420;2023-06-10T06:08:41;3.72;;;3.30;;
64938;SDS011;51453;47.738;7.420;2023-06-10T06:11:07;4.63;;;3.58;;
64938;SDS011;51453;47.738;7.420;2023-06-10T06:13:32;3.90;;;3.60;;
64938;SDS011;51453;47.738;7.420;2023-06-10T06:15:58;4.28;;;3.88;;
64938;SDS011;51453;47.738;7.420;2023-06-10T06:18:24;4.07;;;3.70;;
64938;SDS011;51453;47.738;7.420;2023-06-10T06:20:49;4.85;;;3.90;;
64938;SDS011;51453;47.738;7.420;2023-06-10T06:23:15;5.20;;;4.10;;
64938;SDS011;51453;47.738;7.420;2023-06-10T06:25:40;4.00;;;3.60;;
64938;SDS011;51453;47.738;7.420;2023-06-10T06:28:06;4.78;;;3.35;;
64938;SDS011;51453;47.738;7.420;2023-06-10T06:30:34;4.13;;;3.72;;
64938;SDS011;51453;47.738;7.420;2023-06-10T06:33:00;6.45;;;4.03;;
64938;SDS011;51453;47.738;7.420;2023-06-10T06:35:25;7.18;;;4.15;;
64938;SDS011;51453;47.738;7.420;2023-06-10T06:37:51;4.63;;;4.20;;
64938;SDS011;51453;47.738;7.420;2023-06-10T06:40:17;4.63;;;4.25;;
64938;SDS011;51453;47.738;7.420;2023-06-10T06:42:42;4.80;;;4.40;;
64938;SDS011;51453;47.738;7.420;2023-06-10T06:45:08;6.90;;;4.68;;
64938;SDS011;51453;47.738;7.420;2023-06-10T06:47:34;6.55;;;4.47;;
64938;SDS011;51453;47.738;7.420;2023-06-10T06:50:00;5.30;;;4.80;;
64938;SDS011;51453;47.738;7.420;2023-06-10T06:52:25;5.13;;;4.63;;
64938;SDS011;51453;47.738;7.420;2023-06-10T06:54:51;9.75;;;5.28;;
64938;SDS011;51453;47.738;7.420;2023-06-10T06:57:16;7.28;;;5.53;;
64938;SDS011;51453;47.738;7.420;2023-06-10T06:59:42;6.97;;;5.00;;
64938;SDS011;51453;47.738;7.420;2023-06-10T07:02:08;5.53;;;5.03;;
64938;SDS011;51453;47.738;7.420;2023-06-10T07:04:33;5.38;;;4.50;;
64938;SDS011;51453;47.738;7.420;2023-06-10T07:06:59;5.95;;;5.35;;
64938;SDS011;51453;47.738;7.420;2023-06-10T07:09:25;6.13;;;5.00;;
64938;SDS011;51453;47.738;7.420;2023-06-10T07:11:50;5.68;;;5.10;;
64938;SDS011;51453;47.738;7.420;2023-06-10T07:14:16;7.63;;;5.45;;
64938;SDS011;51453;47.738;7.420;2023-06-10T07:16:41;7.55;;;5.70;;
64938;SDS011;51453;47.738;7.420;2023-06-10T07:19:07;7.97;;;5.43;;
64938;SDS011;51453;47.738;7.420;2023-06-10T07:21:33;5.80;;;5.15;;
64938;SDS011;51453;47.738;7.420;2023-06-10T07:23:59;6.10;;;5.13;;
64938;SDS011;51453;47.738;7.420;2023-06-10T07:26:25;6.32;;;5.07;;
64938;SDS011;51453;47.738;7.420;2023-06-10T07:28:50;6.35;;;5.60;;
64938;SDS011;51453;47.738;7.420;2023-06-10T07:31:16;6.88;;;5.22;;
64938;SDS011;51453;47.738;7.420;2023-06-10T07:33:42;6.88;;;5.32;;
64938;SDS011;51453;47.738;7.420;2023-06-10T07:36:08;6.07;;;5.53;;
64938;SDS011;51453;47.738;7.420;2023-06-10T07:38:34;32.95;;;7.93;;
64938;SDS011;51453;47.738;7.420;2023-06-10T07:41:00;6.07;;;5.47;;
64938;SDS011;51453;47.738;7.420;2023-06-10T07:43:26;6.43;;;5.38;;
64938;SDS011;51453;47.738;7.420;2023-06-10T07:45:52;6.15;;;5.55;;
64938;SDS011;51453;47.738;7.420;2023-06-10T07:48:17;6.88;;;6.18;;
64938;SDS011;51453;47.738;7.420;2023-06-10T07:50:43;9.02;;;6.35;;
64938;SDS011;51453;47.738;7.420;2023-06-10T07:53:09;8.00;;;5.90;;
64938;SDS011;51453;47.738;7.420;2023-06-10T07:55:35;6.50;;;5.80;;
64938;SDS011;51453;47.738;7.420;2023-06-10T07:58:00;6.80;;;6.00;;
64938;SDS011;51453;47.738;7.420;2023-06-10T08:00:26;6.35;;;5.68;;
64938;SDS011;51453;47.738;7.420;2023-06-10T08:02:52;6.63;;;6.03;;
64938;SDS011;51453;47.738;7.420;2023-06-10T08:05:17;7.85;;;5.85;;
64938;SDS011;51453;47.738;7.420;2023-06-10T08:07:44;5.97;;;5.47;;
64938;SDS011;51453;47.738;7.420;2023-06-10T08:10:10;6.80;;;5.60;;
64938;SDS011;51453;47.738;7.420;2023-06-10T08:12:36;7.57;;;6.22;;
64938;SDS011;51453;47.738;7.420;2023-06-10T08:15:02;6.43;;;5.78;;
64938;SDS011;51453;47.738;7.420;2023-06-10T08:17:29;7.28;;;5.22;;
64938;SDS011;51453;47.738;7.420;2023-06-10T08:19:57;6.90;;;5.43;;
64938;SDS011;51453;47.738;7.420;2023-06-10T08:22:23;7.47;;;5.57;;
64938;SDS011;51453;47.738;7.420;2023-06-10T08:24:49;6.82;;;6.15;;
64938;SDS011;51453;47.738;7.420;2023-06-10T08:27:14;7.32;;;6.22;;
64938;SDS011;51453;47.738;7.420;2023-06-10T08:29:40;7.35;;;6.05;;
64938;SDS011;51453;47.738;7.420;2023-06-10T08:32:06;8.00;;;6.22;;
64938;SDS011;51453;47.738;7.420;2023-06-10T08:34:34;7.15;;;6.45;;
64938;SDS011;51453;47.738;7.420;2023-06-10T08:37:01;6.43;;;5.80;;
64938;SDS011;51453;47.738;7.420;2023-06-10T08:39:27;7.00;;;6.15;;
64938;SDS011;51453;47.738;7.420;2023-06-10T08:44:36;7.18;;;5.68;;
64938;SDS011;51453;47.738;7.420;2023-06-10T08:47:15;6.13;;;5.47;;
64938;SDS011;51453;47.738;7.420;2023-06-10T08:49:45;5.80;;;5.30;;
64938;SDS011;51453;47.738;7.420;2023-06-10T08:52:15;6.10;;;5.00;;
64938;SDS011;51453;47.738;7.420;2023-06-10T08:54:43;6.28;;;5.43;;
64938;SDS011;51453;47.738;7.420;2023-06-10T08:57:19;6.32;;;5.72;;
64938;SDS011;51453;47.738;7.420;2023-06-10T08:59:46;7.43;;;6.50;;
64938;SDS011;51453;47.738;7.420;2023-06-10T09:02:13;7.53;;;5.68;;
64938;SDS011;51453;47.738;7.420;2023-06-10T09:04:42;8.90;;;5.90;;
64938;SDS011;51453;47.738;7.420;2023-06-10T09:07:09;7.10;;;6.13;;
64938;SDS011;51453;47.738;7.420;2023-06-10T09:09:35;6.88;;;6.18;;
64938;SDS011;51453;47.738;7.420;2023-06-10T09:12:01;8.82;;;6.80;;
64938;SDS011;51453;47.738;7.420;2023-06-10T09:14:28;9.65;;;6.80;;
64938;SDS011;51453;47.738;7.420;2023-06-10T09:16:53;6.03;;;5.22;;
64938;SDS011;51453;47.738;7.420;2023-06-10T09:19:22;6.95;;;5.50;;
64938;SDS011;51453;47.738;7.420;2023-06-10T09:21:50;8.15;;;5.18;;
64938;SDS011;51453;47.738;7.420;2023-06-10T09:24:16;7.65;;;5.78;;
64938;SDS011;51453;47.738;7.420;2023-06-10T09:26:42;7.55;;;6.10;;
64938;SDS011;51453;47.738;7.420;2023-06-10T09:29:08;6.13;;;5.53;;
64938;SDS011;51453;47.738;7.420;2023-06-10T09:31:36;6.82;;;5.75;;
64938;SDS011;51453;47.738;7.420;2023-06-10T09:34:11;6.85;;;6.13;;
64938;SDS011;51453;47.738;7.420;2023-06-10T09:36:37;7.68;;;5.40;;
64938;SDS011;51453;47.738;7.420;2023-06-10T09:39:05;6.03;;;4.93;;
64938;SDS011;51453;47.738;7.420;2023-06-10T09:41:42;8.10;;;6.30;;
64938;SDS011;51453;47.738;7.420;2023-06-10T09:44:15;7.35;;;5.88;;
64938;SDS011;51453;47.738;7.420;2023-06-10T09:46:42;7.40;;;5.75;;
64938;SDS011;51453;47.738;7.420;2023-06-10T09:49:11;5.40;;;4.90;;
64938;SDS011;51453;47.738;7.420;2023-06-10T09:51:37;7.97;;;5.40;;
64938;SDS011;51453;47.738;7.420;2023-06-10T09:54:13;5.63;;;5.03;;
64938;SDS011;51453;47.738;7.420;2023-06-10T09:56:39;5.85;;;5.35;;
64938;SDS011;51453;47.738;7.420;2023-06-10T09:59:07;6.28;;;4.60;;
64938;SDS011;51453;47.738;7.420;2023-06-10T10:01:33;5.97;;;4.60;;
64938;SDS011;51453;47.738;7.420;2023-06-10T10:03:59;5.32;;;4.65;;
64938;SDS011;51453;47.738;7.420;2023-06-10T10:06:26;7.07;;;4.95;;
64938;SDS011;51453;47.738;7.420;2023-06-10T10:08:53;8.18;;;5.38;;
64938;SDS011;51453;47.738;7.420;2023-06-10T10:11:20;6.97;;;4.70;;
64938;SDS011;51453;47.738;7.420;2023-06-10T10:13:51;5.68;;;4.88;;
64938;SDS011;51453;47.738;7.420;2023-06-10T10:16:19;10.38;;;5.40;;
64938;SDS011;51453;47.738;7.420;2023-06-10T10:18:49;7.32;;;5.15;;
64938;SDS011;51453;47.738;7.420;2023-06-10T10:21:21;5.40;;;4.90;;
64938;SDS011;51453;47.738;7.420;2023-06-10T10:24:51;5.00;;;4.57;;
64938;SDS011;51453;47.738;7.420;2023-06-10T10:26:46;10.00;;;5.57;;
64938;SDS011;51453;47.738;7.420;2023-06-10T10:29:16;5.85;;;5.20;;
64938;SDS011;51453;47.738;7.420;2023-06-10T10:31:56;6.30;;;5.10;;
64938;SDS011;51453;47.738;7.420;2023-06-10T10:37:19;5.10;;;4.65;;
64938;SDS011;51453;47.738;7.420;2023-06-10T10:39:46;5.30;;;4.80;;
64938;SDS011;51453;47.738;7.420;2023-06-10T10:42:12;5.18;;;4.78;;
64938;SDS011;51453;47.738;7.420;2023-06-10T10:44:39;5.75;;;4.68;;
64938;SDS011;51453;47.738;7.420;2023-06-10T10:47:07;6.75;;;5.25;;
64938;SDS011;51453;47.738;7.420;2023-06-10T10:49:35;5.43;;;4.88;;
64938;SDS011;51453;47.738;7.420;2023-06-10T10:52:02;7.50;;;6.13;;
64938;SDS011;51453;47.738;7.420;2023-06-10T10:54:35;6.60;;;6.00;;
64938;SDS011;51453;47.738;7.420;2023-06-10T10:59:54;5.93;;;5.32;;
64938;SDS011;51453;47.738;7.420;2023-06-10T11:02:42;5.80;;;5.10;;
64938;SDS011;51453;47.738;7.420;2023-06-10T11:05:14;6.47;;;5.13;;
64938;SDS011;51453;47.738;7.420;2023-06-10T11:07:40;6.95;;;5.32;;
64938;SDS011;51453;47.738;7.420;2023-06-10T11:10:20;7.22;;;5.60;;
64938;SDS011;51453;47.738;7.420;2023-06-10T11:12:57;5.72;;;5.07;;
64938;SDS011;51453;47.738;7.420;2023-06-10T11:15:27;6.03;;;5.15;;
64938;SDS011;51453;47.738;7.420;2023-06-10T11:31:31;6.28;;;5.60;;
64938;SDS011;51453;47.738;7.420;2023-06-10T11:33:59;9.30;;;5.53;;
64938;SDS011;51453;47.738;7.420;2023-06-10T11:36:27;6.85;;;5.70;;
64938;SDS011;51453;47.738;7.420;2023-06-10T11:38:55;6.30;;;5.80;;
64938;SDS011;51453;47.738;7.420;2023-06-10T11:41:26;7.97;;;5.20;;
64938;SDS011;51453;47.738;7.420;2023-06-10T11:43:53;6.10;;;5.50;;
64938;SDS011;51453;47.738;7.420;2023-06-10T11:46:21;6.47;;;5.88;;
64938;SDS011;51453;47.738;7.420;2023-06-10T11:48:57;6.65;;;5.97;;
64938;SDS011;51453;47.738;7.420;2023-06-10T11:51:28;7.07;;;6.38;;
64938;SDS011;51453;47.738;7.420;2023-06-10T11:53:55;7.65;;;5.97;;
64938;SDS011;51453;47.738;7.420;2023-06-10T11:56:21;6.15;;;5.57;;
64938;SDS011;51453;47.738;7.420;2023-06-10T11:58:51;6.25;;;5.65;;
64938;SDS011;51453;47.738;7.420;2023-06-10T12:01:32;6.32;;;5.32;;
64938;SDS011;51453;47.738;7.420;2023-06-10T12:04:09;7.47;;;5.22;;
64938;SDS011;51453;47.738;7.420;2023-06-10T12:11:43;7.25;;;6.07;;
64938;SDS011;51453;47.738;7.420;2023-06-10T12:14:10;7.05;;;5.57;;
64938;SDS011;51453;47.738;7.420;2023-06-10T12:16:35;6.60;;;5.97;;
64938;SDS011;51453;47.738;7.420;2023-06-10T12:19:04;8.07;;;5.80;;
64938;SDS011;51453;47.738;7.420;2023-06-10T12:21:32;9.45;;;6.30;;
64938;SDS011;51453;47.738;7.420;2023-06-10T12:24:01;6.57;;;5.97;;
64938;SDS011;51453;47.738;7.420;2023-06-10T12:26:40;7.10;;;5.85;;
64938;SDS011;51453;47.738;7.420;2023-06-10T12:29:12;5.53;;;5.03;;
64938;SDS011;51453;47.738;7.420;2023-06-10T12:35:01;6.72;;;5.53;;
64938;SDS011;51453;47.738;7.420;2023-06-10T12:37:26;5.40;;;4.90;;
64938;SDS011;51453;47.738;7.420;2023-06-10T12:39:52;6.35;;;5.75;;
64938;SDS011;51453;47.738;7.420;2023-06-10T12:42:21;6.90;;;5.57;;
64938;SDS011;51453;47.738;7.420;2023-06-10T12:44:52;6.22;;;5.70;;
64938;SDS011;51453;47.738;7.420;2023-06-10T12:47:19;6.25;;;5.65;;
64938;SDS011;51453;47.738;7.420;2023-06-10T12:49:45;9.15;;;6.47;;
64938;SDS011;51453;47.738;7.420;2023-06-10T12:52:10;5.97;;;5.40;;
64938;SDS011;51453;47.738;7.420;2023-06-10T12:54:36;7.05;;;5.50;;
64938;SDS011;51453;47.738;7.420;2023-06-10T12:57:02;6.03;;;5.50;;
64938;SDS011;51453;47.738;7.420;2023-06-10T12:59:28;5.85;;;5.35;;
64938;SDS011;51453;47.738;7.420;2023-06-10T13:01:54;6.13;;;5.53;;
64938;SDS011;51453;47.738;7.420;2023-06-10T13:04:20;5.93;;;5.30;;
64938;SDS011;51453;47.738;7.420;2023-06-10T13:06:46;7.45;;;5.53;;
64938;SDS011;51453;47.738;7.420;2023-06-10T13:09:14;22.15;;;7.07;;
64938;SDS011;51453;47.738;7.420;2023-06-10T13:11:40;8.38;;;5.68;;
64938;SDS011;51453;47.738;7.420;2023-06-10T13:14:06;6.25;;;5.65;;
64938;SDS011;51453;47.738;7.420;2023-06-10T13:16:32;7.90;;;6.00;;
64938;SDS011;51453;47.738;7.420;2023-06-10T13:18:58;6.10;;;5.57;;
64938;SDS011;51453;47.738;7.420;2023-06-10T13:21:24;8.13;;;6.25;;
64938;SDS011;51453;47.738;7.420;2023-06-10T13:23:50;6.55;;;5.93;;
64938;SDS011;51453;47.738;7.420;2023-06-10T13:26:16;7.05;;;6.13;;
64938;SDS011;51453;47.738;7.420;2023-06-10T13:28:42;6.35;;;5.80;;
64938;SDS011;51453;47.738;7.420;2023-06-10T13:31:08;6.30;;;5.70;;
64938;SDS011;51453;47.738;7.420;2023-06-10T13:33:34;6.78;;;6.18;;
64938;SDS011;51453;47.738;7.420;2023-06-10T13:36:00;6.55;;;5.90;;
64938;SDS011;51453;47.738;7.420;2023-06-10T13:38:25;6.70;;;6.10;;
64938;SDS011;51453;47.738;7.420;2023-06-10T13:40:51;7.05;;;6.10;;
64938;SDS011;51453;47.738;7.420;2023-06-10T13:43:16;6.30;;;5.68;;
64938;SDS011;51453;47.738;7.420;2023-06-10T13:45:42;9.23;;;5.85;;
64938;SDS011;51453;47.738;7.420;2023-06-10T13:48:08;6.30;;;5.43;;
64938;SDS011;51453;47.738;7.420;2023-06-10T13:50:34;6.45;;;5.85;;
64938;SDS011;51453;47.738;7.420;2023-06-10T13:52:59;6.22;;;5.50;;
64938;SDS011;51453;47.738;7.420;2023-06-10T13:55:25;6.57;;;5.85;;
64938;SDS011;51453;47.738;7.420;2023-06-10T13:57:51;6.07;;;5.63;;
64938;SDS011;51453;47.738;7.420;2023-06-10T14:00:16;6.60;;;6.00;;
64938;SDS011;51453;47.738;7.420;2023-06-10T14:02:42;8.10;;;6.32;;
64938;SDS011;51453;47.738;7.420;2023-06-10T14:05:08;8.88;;;5.93;;
64938;SDS011;51453;47.738;7.420;2023-06-10T14:07:34;6.53;;;5.93;;
64938;SDS011;51453;47.738;7.420;2023-06-10T14:10:00;7.53;;;6.10;;
64938;SDS011;51453;47.738;7.420;2023-06-10T14:12:25;7.43;;;5.90;;
64938;SDS011;51453;47.738;7.420;2023-06-10T14:14:51;7.07;;;6.20;;
64938;SDS011;51453;47.738;7.420;2023-06-10T14:17:17;6.40;;;5.88;;
64938;SDS011;51453;47.738;7.420;2023-06-10T14:19:42;9.77;;;6.13;;
64938;SDS011;51453;47.738;7.420;2023-06-10T14:22:08;6.60;;;6.00;;
64938;SDS011;51453;47.738;7.420;2023-06-10T14:24:34;7.80;;;6.00;;
64938;SDS011;51453;47.738;7.420;2023-06-10T14:27:01;6.18;;;5.68;;
64938;SDS011;51453;47.738;7.420;2023-06-10T14:29:27;9.63;;;6.18;;
64938;SDS011;51453;47.738;7.420;2023-06-10T14:31:54;6.60;;;6.00;;
64938;SDS011;51453;47.738;7.420;2023-06-10T14:34:20;7.30;;;5.65;;
64938;SDS011;51453;47.738;7.420;2023-06-10T14:36:45;6.07;;;5.57;;
64938;SDS011;51453;47.738;7.420;2023-06-10T14:39:11;6.00;;;5.43;;
64938;SDS011;51453;47.738;7.420;2023-06-10T14:41:36;6.00;;;5.40;;
64938;SDS011;51453;47.738;7.420;2023-06-10T14:44:02;6.47;;;5.88;;
64938;SDS011;51453;47.738;7.420;2023-06-10T14:46:28;5.95;;;5.35;;
64938;SDS011;51453;47.738;7.420;2023-06-10T14:48:53;11.68;;;5.70;;
64938;SDS011;51453;47.738;7.420;2023-06-10T14:51:19;6.38;;;5.63;;
64938;SDS011;51453;47.738;7.420;2023-06-10T14:53:46;5.80;;;5.30;;
64938;SDS011;51453;47.738;7.420;2023-06-10T14:56:11;6.15;;;5.47;;
64938;SDS011;51453;47.738;7.420;2023-06-10T14:58:37;6.32;;;5.05;;
64938;SDS011;51453;47.738;7.420;2023-06-10T15:01:03;5.97;;;5.47;;
64938;SDS011;51453;47.738;7.420;2023-06-10T15:03:29;5.45;;;4.95;;
64938;SDS011;51453;47.738;7.420;2023-06-10T15:05:54;7.75;;;5.20;;
64938;SDS011;51453;47.738;7.420;2023-06-10T15:08:20;5.80;;;5.25;;
64938;SDS011;51453;47.738;7.420;2023-06-10T15:10:46;6.82;;;4.55;;
64938;SDS011;51453;47.738;7.420;2023-06-10T15:13:13;4.93;;;4.53;;
64938;SDS011;51453;47.738;7.420;2023-06-10T15:15:39;5.30;;;4.90;;
64938;SDS011;51453;47.738;7.420;2023-06-10T15:18:04;5.65;;;5.00;;
64938;SDS011;51453;47.738;7.420;2023-06-10T15:20:30;5.78;;;4.55;;
64938;SDS011;51453;47.738;7.420;2023-06-10T15:22:55;6.47;;;4.70;;
64938;SDS011;51453;47.738;7.420;2023-06-10T15:25:21;5.57;;;5.07;;